Time;durP1;ratioP1;P1;durP2;ratioP2;P2;SDS_P1;SDS_P2;PMS_P1;PMS_P2;Temp;Humidity;BMP_temperature;BMP_pressure;BME280_temperature;BME280_humidity;BME280_pressure;Samples;Min_cycle;Max_cycle;Signal;HPM_P1;HPM_P2
2022/06/10 00:00:52;;;;;;;8.15;1.67;;;11.00;99.90;;;;;;5051841;28;20472;-80
2022/06/10 00:03:19;;;;;;;3.80;1.35;;;10.90;99.90;;;;;;5051347;28;20238;-80
2022/06/10 00:05:48;;;;;;;3.63;1.67;;;10.90;99.90;;;;;;5050523;28;20376;-80
2022/06/10 00:08:20;;;;;;;4.03;1.13;;;10.90;99.90;;;;;;5053238;28;20044;-80
2022/06/10 00:10:49;;;;;;;4.38;1.05;;;10.90;99.90;;;;;;5051339;28;20132;-80
2022/06/10 00:13:16;;;;;;;5.82;1.25;;;10.90;99.90;;;;;;5052137;28;20056;-80
2022/06/10 00:15:43;;;;;;;4.30;1.20;;;10.90;99.90;;;;;;5051782;28;20045;-80
2022/06/10 00:18:08;;;;;;;3.75;1.35;;;10.90;99.90;;;;;;5037408;28;20033;-80
2022/06/10 00:20:40;;;;;;;4.97;1.40;;;10.90;99.90;;;;;;5051887;28;20042;-80
2022/06/10 00:23:07;;;;;;;4.50;1.40;;;10.90;99.90;;;;;;5058710;28;20040;-80
2022/06/10 00:25:33;;;;;;;8.82;1.95;;;10.90;99.90;;;;;;5041293;28;20107;-80
2022/06/10 00:27:59;;;;;;;6.75;1.52;;;10.90;99.90;;;;;;5059148;28;20048;-80
2022/06/10 00:30:28;;;;;;;4.13;1.58;;;10.90;99.90;;;;;;5053971;28;20044;-80
2022/06/10 00:32:55;;;;;;;5.18;0.75;;;10.80;99.90;;;;;;5044666;28;20440;-80
2022/06/10 00:35:20;;;;;;;5.85;1.38;;;10.80;99.90;;;;;;5061619;28;20045;-80
2022/06/10 00:37:46;;;;;;;8.93;2.50;;;10.80;99.90;;;;;;5043865;28;20040;-80
2022/06/10 00:40:35;;;;;;;9.25;1.98;;;10.90;99.90;;;;;;5060892;28;20105;-80
2022/06/10 00:43:01;;;;;;;5.57;1.98;;;10.90;99.90;;;;;;5055978;28;20061;-80
2022/06/10 00:45:45;;;;;;;7.90;2.05;;;10.80;99.90;;;;;;5057585;28;20048;-80
2022/06/10 00:48:16;;;;;;;7.13;2.00;;;10.80;99.90;;;;;;5057834;28;20041;-80
2022/06/10 00:50:42;;;;;;;4.45;2.08;;;10.90;99.90;;;;;;5042124;28;20133;-80
2022/06/10 00:53:12;;;;;;;6.22;1.63;;;10.80;99.90;;;;;;5055154;28;20132;-80
2022/06/10 00:55:39;;;;;;;8.93;1.85;;;10.90;99.90;;;;;;5053533;28;20269;-80
2022/06/10 00:58:15;;;;;;;4.57;2.15;;;10.80;99.90;;;;;;5054593;28;20110;-80
2022/06/10 01:00:41;;;;;;;9.15;1.98;;;10.80;99.90;;;;;;5071770;28;20042;-80
2022/06/10 01:03:07;;;;;;;5.28;2.08;;;10.80;99.90;;;;;;5057277;28;20402;-80
2022/06/10 01:05:33;;;;;;;5.28;1.60;;;10.80;99.90;;;;;;5037080;28;20045;-80
2022/06/10 01:08:10;;;;;;;7.05;2.58;;;10.80;99.90;;;;;;5053744;28;20072;-80
2022/06/10 01:11:08;;;;;;;4.50;2.20;;;10.80;99.90;;;;;;5054256;28;20048;-80
2022/06/10 01:13:54;;;;;;;7.60;3.00;;;10.80;99.90;;;;;;5054024;28;20049;-80
2022/06/10 01:16:35;;;;;;;6.93;1.77;;;10.80;99.90;;;;;;5051656;28;20116;-80
2022/06/10 01:19:19;;;;;;;9.25;2.00;;;10.80;99.90;;;;;;5050114;28;20139;-80
2022/06/10 01:22:27;;;;;;;9.00;2.10;;;10.70;99.90;;;;;;5056868;28;20410;-80
2022/06/10 01:25:30;;;;;;;4.72;1.63;;;10.70;99.90;;;;;;5040230;28;20045;-79
2022/06/10 01:28:34;;;;;;;7.00;2.13;;;10.70;99.90;;;;;;5051030;28;20403;-79
2022/06/10 01:31:24;;;;;;;5.03;1.73;;;10.60;99.90;;;;;;5051955;28;20391;-79
2022/06/10 01:34:15;;;;;;;9.13;2.65;;;10.60;99.90;;;;;;5045905;28;20045;-79
2022/06/10 01:36:47;;;;;;;5.28;2.17;;;10.60;99.90;;;;;;5051413;28;20056;-79
2022/06/10 01:39:23;;;;;;;7.32;3.38;;;10.60;99.90;;;;;;5033817;28;20048;-79
2022/06/10 01:41:53;;;;;;;6.68;1.63;;;10.60;99.90;;;;;;5049242;28;20653;-79
2022/06/10 01:44:53;;;;;;;7.57;2.97;;;10.60;99.90;;;;;;5051282;28;20037;-79
2022/06/10 01:47:45;;;;;;;3.33;2.08;;;10.50;99.90;;;;;;5035133;28;20048;-79
2022/06/10 01:50:50;;;;;;;5.95;2.65;;;10.50;99.90;;;;;;5054391;28;20045;-80
2022/06/10 01:53:25;;;;;;;6.45;2.85;;;10.50;99.90;;;;;;5053352;28;20115;-80
2022/06/10 01:56:09;;;;;;;4.78;2.42;;;10.40;99.90;;;;;;5055047;28;20045;-80
2022/06/10 01:58:38;;;;;;;3.75;2.13;;;10.40;99.90;;;;;;5056175;28;20047;-80
2022/06/10 02:01:10;;;;;;;6.20;2.75;;;10.40;99.90;;;;;;5055413;28;20116;-80
2022/06/10 02:03:37;;;;;;;7.32;2.47;;;10.50;99.90;;;;;;5054716;28;20072;-80
2022/06/10 02:06:30;;;;;;;8.20;2.70;;;10.50;99.90;;;;;;5067826;28;20032;-80
2022/06/10 02:09:09;;;;;;;10.15;3.00;;;10.50;99.90;;;;;;5067639;28;20076;-80
2022/06/10 02:11:38;;;;;;;8.73;2.70;;;10.50;99.90;;;;;;5071966;28;20029;-80
2022/06/10 02:14:14;;;;;;;6.60;3.25;;;10.50;99.90;;;;;;5076583;28;20025;-80
2022/06/10 02:16:43;;;;;;;6.82;2.25;;;10.50;99.90;;;;;;5074566;28;20033;-80
2022/06/10 02:19:26;;;;;;;7.80;2.85;;;10.50;99.90;;;;;;5073523;28;20040;-80
2022/06/10 02:22:02;;;;;;;4.40;2.33;;;10.50;99.90;;;;;;5060980;28;20047;-80
2022/06/10 02:24:57;;;;;;;5.75;2.75;;;10.40;99.90;;;;;;5073302;28;20093;-80
2022/06/10 02:27:27;;;;;;;9.27;2.50;;;10.40;99.90;;;;;;5036398;28;20080;-80
2022/06/10 02:30:01;;;;;;;6.55;2.40;;;10.40;99.90;;;;;;5061677;28;20039;-80
2022/06/10 02:32:28;;;;;;;3.88;2.63;;;10.40;99.90;;;;;;5070548;28;20037;-80
2022/06/10 02:34:55;;;;;;;12.38;3.53;;;10.40;99.90;;;;;;5060206;28;20453;-80
2022/06/10 02:37:44;;;;;;;14.07;3.50;;;10.40;99.90;;;;;;5054680;28;20063;-80
2022/06/10 02:40:42;;;;;;;7.22;3.38;;;10.30;99.90;;;;;;5050640;28;20048;-80
2022/06/10 02:43:37;;;;;;;9.55;3.25;;;10.30;99.90;;;;;;5056843;28;20044;-80
2022/06/10 02:46:11;;;;;;;7.05;2.80;;;10.30;99.90;;;;;;5047188;28;20033;-80
2022/06/10 02:49:07;;;;;;;8.07;3.00;;;10.30;99.90;;;;;;5049793;28;20041;-80
2022/06/10 02:51:35;;;;;;;4.90;3.50;;;10.30;99.90;;;;;;5057728;28;20307;-80
2022/06/10 02:54:04;;;;;;;6.78;3.15;;;10.30;99.90;;;;;;5053122;28;20036;-80
2022/06/10 02:56:30;;;;;;;5.80;2.78;;;10.30;99.90;;;;;;5057956;28;20033;-81
2022/06/10 03:02:04;;;;;;;4.75;2.40;;;10.20;99.90;;;;;;5056952;28;20041;-80
2022/06/10 03:05:13;;;;;;;10.48;4.43;;;10.20;99.90;;;;;;5057232;28;20082;-81
2022/06/10 03:08:20;;;;;;;9.48;3.42;;;10.20;99.90;;;;;;5074251;28;20056;-81
2022/06/10 03:11:10;;;;;;;13.85;5.70;;;10.20;99.90;;;;;;5056837;28;20061;-80
2022/06/10 03:13:43;;;;;;;4.97;2.85;;;10.20;99.90;;;;;;5056218;28;20120;-80
2022/06/10 03:16:29;;;;;;;7.65;3.15;;;10.10;99.90;;;;;;5040368;28;20036;-81
2022/06/10 03:18:59;;;;;;;8.43;3.85;;;10.10;99.90;;;;;;5052902;28;20099;-81
2022/06/10 03:22:01;;;;;;;9.25;4.65;;;10.10;99.90;;;;;;5054003;28;20464;-81
2022/06/10 03:24:52;;;;;;;6.82;3.50;;;10.10;99.90;;;;;;5068397;28;20702;-81
2022/06/10 03:27:42;;;;;;;9.68;3.30;;;10.10;99.90;;;;;;5052283;28;20049;-81
2022/06/10 03:30:17;;;;;;;7.80;3.30;;;10.10;99.90;;;;;;5034739;28;20045;-80
2022/06/10 03:33:06;;;;;;;7.57;3.50;;;10.10;99.90;;;;;;5057727;28;20045;-80
2022/06/10 03:35:42;;;;;;;6.40;2.92;;;10.10;99.90;;;;;;5056071;28;20487;-80
2022/06/10 03:38:09;;;;;;;8.05;3.40;;;10.10;99.90;;;;;;5049032;28;20504;-80
2022/06/10 03:40:35;;;;;;;9.13;3.75;;;10.10;99.90;;;;;;5051430;28;20040;-79
2022/06/10 03:43:03;;;;;;;8.68;4.07;;;10.10;99.90;;;;;;5051009;28;20120;-80
2022/06/10 03:45:36;;;;;;;8.77;3.20;;;10.10;99.90;;;;;;5050201;28;20039;-79
2022/06/10 03:48:02;;;;;;;5.93;2.72;;;10.10;99.90;;;;;;5053550;28;20047;-80
2022/06/10 03:50:36;;;;;;;9.00;3.17;;;10.10;99.90;;;;;;5051206;28;20045;-80
2022/06/10 03:53:02;;;;;;;6.65;3.75;;;10.10;99.90;;;;;;5051091;28;20064;-80
2022/06/10 03:55:28;;;;;;;9.48;2.90;;;10.20;99.90;;;;;;5049378;28;20049;-80
2022/06/10 03:57:53;;;;;;;8.55;3.85;;;10.20;99.90;;;;;;5049323;28;20049;-80
2022/06/10 04:00:24;;;;;;;3.90;3.25;;;10.20;99.90;;;;;;5069240;28;20055;-81
2022/06/10 04:02:49;;;;;;;6.20;3.42;;;10.20;99.90;;;;;;5057926;28;20033;-80
2022/06/10 04:05:15;;;;;;;8.05;3.80;;;10.20;99.90;;;;;;5045992;28;20036;-80
2022/06/10 04:07:41;;;;;;;5.35;3.22;;;10.30;99.90;;;;;;5049338;28;20064;-79
2022/06/10 04:10:09;;;;;;;7.35;3.58;;;10.30;99.90;;;;;;5049841;28;20102;-79
2022/06/10 04:12:36;;;;;;;4.85;3.30;;;10.30;99.90;;;;;;5047535;28;20061;-79
2022/06/10 04:15:02;;;;;;;5.30;3.50;;;10.30;99.90;;;;;;5051572;28;20044;-79
2022/06/10 04:17:28;;;;;;;13.30;3.85;;;10.40;99.90;;;;;;5049450;28;20047;-80
2022/06/10 04:19:54;;;;;;;6.90;4.00;;;10.40;99.90;;;;;;5047572;28;20039;-81
2022/06/10 04:22:19;;;;;;;8.88;3.88;;;10.50;99.90;;;;;;5049690;28;20037;-81
2022/06/10 04:24:45;;;;;;;11.15;5.22;;;10.60;99.90;;;;;;5045923;28;20041;-80
2022/06/10 04:27:11;;;;;;;9.00;4.03;;;10.60;99.90;;;;;;5044046;28;20502;-80
2022/06/10 04:29:36;;;;;;;9.82;4.18;;;10.70;99.90;;;;;;5049665;28;20079;-79
2022/06/10 04:32:02;;;;;;;6.68;3.40;;;10.70;99.90;;;;;;5050545;28;20037;-81
2022/06/10 04:34:28;;;;;;;5.38;3.47;;;10.80;99.90;;;;;;5045806;28;20473;-80
2022/06/10 04:36:54;;;;;;;7.28;3.70;;;10.90;99.90;;;;;;5047456;28;20037;-80
2022/06/10 04:39:20;;;;;;;8.88;4.07;;;10.90;99.90;;;;;;5050863;28;20110;-80
2022/06/10 04:41:45;;;;;;;8.13;3.50;;;11.00;99.90;;;;;;5050551;28;20087;-80
2022/06/10 04:44:11;;;;;;;10.95;3.67;;;11.10;99.90;;;;;;5053153;28;20032;-81
2022/06/10 04:46:43;;;;;;;6.28;3.80;;;11.20;99.90;;;;;;5049898;28;20046;-81
2022/06/10 04:49:09;;;;;;;12.57;5.97;;;11.30;99.90;;;;;;5068518;28;20040;-80
2022/06/10 04:51:36;;;;;;;8.40;4.55;;;11.40;99.90;;;;;;5053098;28;20048;-80
2022/06/10 04:54:03;;;;;;;8.75;5.20;;;11.50;99.90;;;;;;5036980;28;20049;-81
2022/06/10 04:56:30;;;;;;;11.25;4.75;;;11.60;99.90;;;;;;5050802;28;20044;-80
2022/06/10 04:58:56;;;;;;;14.55;5.43;;;11.70;99.90;;;;;;5048653;28;20037;-81
2022/06/10 05:01:21;;;;;;;9.63;4.50;;;11.90;99.90;;;;;;5036610;28;20479;-79
2022/06/10 05:03:47;;;;;;;6.53;3.95;;;11.90;99.90;;;;;;5053048;28;20025;-80
2022/06/10 05:06:15;;;;;;;14.18;3.95;;;12.00;99.90;;;;;;5053088;28;20037;-80
2022/06/10 05:08:41;;;;;;;15.75;4.80;;;12.20;99.90;;;;;;5049802;28;20041;-80
2022/06/10 05:11:09;;;;;;;12.20;5.30;;;12.30;99.90;;;;;;5032385;28;20391;-81
2022/06/10 05:13:36;;;;;;;13.32;5.25;;;12.40;99.90;;;;;;5066820;28;20098;-81
2022/06/10 05:16:03;;;;;;;8.32;3.47;;;12.50;99.90;;;;;;5052156;28;20086;-81
2022/06/10 05:18:29;;;;;;;11.07;4.38;;;12.70;99.90;;;;;;5052470;28;20117;-80
2022/06/10 05:20:55;;;;;;;8.40;4.28;;;12.80;99.90;;;;;;5049558;28;20376;-80
2022/06/10 05:23:23;;;;;;;9.50;4.20;;;13.00;99.90;;;;;;5051650;28;20489;-80
2022/06/10 05:25:50;;;;;;;11.70;4.78;;;13.20;99.90;;;;;;5051038;28;20041;-80
2022/06/10 05:28:16;;;;;;;13.18;4.28;;;13.40;99.90;;;;;;5052667;28;20394;-81
2022/06/10 05:30:43;;;;;;;7.22;4.85;;;13.60;99.90;;;;;;5050361;28;20043;-80
2022/06/10 05:33:12;;;;;;;7.30;4.35;;;13.70;99.90;;;;;;5046762;28;20063;-80
2022/06/10 05:35:39;;;;;;;10.85;4.20;;;13.90;99.90;;;;;;5053537;28;20045;-80
2022/06/10 05:38:08;;;;;;;9.20;3.92;;;14.10;99.90;;;;;;5053573;28;20095;-81
2022/06/10 05:40:34;;;;;;;7.90;4.22;;;14.30;99.90;;;;;;5050509;28;20087;-81
2022/06/10 05:43:00;;;;;;;5.97;3.95;;;14.50;99.90;;;;;;5053174;28;20037;-80
2022/06/10 05:45:26;;;;;;;5.80;3.67;;;14.60;99.90;;;;;;5050312;28;20090;-82
2022/06/10 05:47:57;;;;;;;8.65;3.58;;;14.70;99.90;;;;;;5052486;28;20041;-81
2022/06/10 05:50:37;;;;;;;10.07;4.85;;;14.80;99.90;;;;;;5050682;28;20415;-81
2022/06/10 05:53:06;;;;;;;11.05;4.05;;;14.90;99.90;;;;;;5035186;28;20041;-81
2022/06/10 05:55:33;;;;;;;13.27;3.22;;;15.20;99.90;;;;;;5045873;28;20049;-81
2022/06/10 05:58:02;;;;;;;9.32;3.40;;;15.30;99.90;;;;;;5052750;28;20042;-80
2022/06/10 06:00:30;;;;;;;10.27;3.65;;;15.60;99.90;;;;;;5033283;28;20138;-82
2022/06/10 06:02:58;;;;;;;8.70;3.80;;;15.80;99.90;;;;;;5049194;28;20102;-81
2022/06/10 06:05:24;;;;;;;10.98;4.30;;;16.10;99.90;;;;;;5052501;28;20043;-82
2022/06/10 06:07:50;;;;;;;9.15;3.83;;;16.30;99.90;;;;;;5050728;28;20053;-82
2022/06/10 06:10:20;;;;;;;10.20;3.63;;;16.40;99.90;;;;;;5045610;28;20521;-79
2022/06/10 06:12:46;;;;;;;11.10;4.03;;;16.60;99.90;;;;;;5049872;28;20464;-79
2022/06/10 06:15:13;;;;;;;8.35;3.78;;;16.70;99.90;;;;;;5043769;28;20110;-79
2022/06/10 06:17:39;;;;;;;13.05;3.40;;;16.60;99.90;;;;;;5047483;28;20049;-78
2022/06/10 06:20:06;;;;;;;7.75;3.38;;;16.60;99.90;;;;;;5032014;28;20044;-80
2022/06/10 06:22:32;;;;;;;8.82;3.42;;;16.50;99.90;;;;;;5047601;28;20037;-79
2022/06/10 06:24:57;;;;;;;10.45;3.75;;;16.40;99.90;;;;;;5048770;28;20533;-79
2022/06/10 06:27:23;;;;;;;6.05;2.70;;;16.30;99.90;;;;;;5049991;28;20047;-79
2022/06/10 06:29:50;;;;;;;6.07;2.92;;;16.30;99.90;;;;;;5036134;28;20044;-79
2022/06/10 06:32:16;;;;;;;8.10;3.78;;;16.30;99.90;;;;;;5051049;28;20036;-79
2022/06/10 06:34:42;;;;;;;10.77;3.70;;;16.20;99.90;;;;;;5049997;28;20049;-80
2022/06/10 06:37:14;;;;;;;10.25;3.65;;;16.30;99.90;;;;;;5057425;28;20056;-79
2022/06/10 06:39:40;;;;;;;6.05;3.03;;;16.30;99.90;;;;;;5057284;28;20093;-80
2022/06/10 06:42:06;;;;;;;5.63;3.60;;;16.40;99.90;;;;;;5057179;28;20053;-80
2022/06/10 06:44:32;;;;;;;6.97;3.03;;;16.40;99.90;;;;;;5053473;28;20037;-80
2022/06/10 06:46:58;;;;;;;9.45;2.90;;;16.40;99.90;;;;;;5049823;28;20086;-80
2022/06/10 06:49:27;;;;;;;12.65;3.75;;;16.40;99.90;;;;;;5049879;28;20036;-79
2022/06/10 06:51:54;;;;;;;10.10;2.53;;;16.50;99.90;;;;;;5048431;28;20488;-80
2022/06/10 06:54:19;;;;;;;5.32;2.78;;;16.60;99.90;;;;;;5046850;28;20045;-79
2022/06/10 06:56:46;;;;;;;9.05;2.47;;;16.80;99.90;;;;;;5047100;28;20072;-80
2022/06/10 06:59:11;;;;;;;7.15;2.95;;;16.80;99.90;;;;;;5030639;28;20025;-80
2022/06/10 07:01:37;;;;;;;5.78;3.08;;;16.90;99.90;;;;;;5049315;28;20454;-80
2022/06/10 07:04:04;;;;;;;9.23;4.13;;;16.90;99.90;;;;;;5048148;28;20462;-80
2022/06/10 07:06:31;;;;;;;10.68;4.55;;;16.90;99.90;;;;;;5047189;28;20029;-80
2022/06/10 07:08:57;;;;;;;6.28;2.63;;;17.00;99.90;;;;;;5049108;28;20076;-80
2022/06/10 07:11:23;;;;;;;5.57;2.63;;;17.20;99.90;;;;;;5046392;28;20440;-80
2022/06/10 07:13:48;;;;;;;6.32;3.20;;;17.50;99.90;;;;;;5045126;28;20098;-80
2022/06/10 07:16:14;;;;;;;8.15;2.92;;;17.60;99.90;;;;;;5046114;28;20037;-80
2022/06/10 07:18:39;;;;;;;10.25;3.78;;;17.60;99.90;;;;;;5044864;28;20823;-79
2022/06/10 07:21:05;;;;;;;11.63;3.88;;;17.70;99.90;;;;;;5062927;28;20089;-80
2022/06/10 07:23:32;;;;;;;8.45;3.17;;;17.70;99.90;;;;;;5030971;28;20037;-80
2022/06/10 07:25:59;;;;;;;10.05;3.47;;;17.70;99.90;;;;;;5046453;28;20044;-79
2022/06/10 07:28:25;;;;;;;8.88;3.33;;;17.60;99.90;;;;;;5030409;28;20040;-80
2022/06/10 07:30:51;;;;;;;8.23;3.72;;;17.60;99.90;;;;;;5031363;28;20159;-79
2022/06/10 07:33:17;;;;;;;8.60;4.18;;;17.50;99.90;;;;;;5048238;28;20095;-79
2022/06/10 07:35:42;;;;;;;8.52;4.38;;;17.30;99.90;;;;;;5046491;28;20403;-79
2022/06/10 07:38:09;;;;;;;9.43;4.35;;;17.10;99.90;;;;;;5051625;28;20048;-80
2022/06/10 07:43:32;;;;;;;;;;;17.20;99.90;;;;;;5049070;28;20045;-80
2022/06/10 07:45:59;;;;;;;6.80;4.07;;;17.40;99.90;;;;;;5043739;28;20047;-80
2022/06/10 07:48:25;;;;;;;10.30;3.90;;;17.40;99.90;;;;;;5042247;28;20502;-80
2022/06/10 07:50:51;;;;;;;10.77;4.35;;;17.40;99.90;;;;;;5045538;28;20052;-80
2022/06/10 07:53:17;;;;;;;7.82;5.10;;;17.50;99.90;;;;;;5042317;28;20149;-80
2022/06/10 07:55:46;;;;;;;7.30;4.18;;;17.60;99.90;;;;;;5042812;28;20180;-80
2022/06/10 07:58:14;;;;;;;6.85;4.07;;;17.60;99.90;;;;;;5046237;28;20041;-80
2022/06/10 08:00:40;;;;;;;9.18;4.85;;;17.70;99.90;;;;;;5048272;28;20096;-79
2022/06/10 08:03:06;;;;;;;8.65;4.85;;;17.70;99.90;;;;;;5044525;28;20037;-79
2022/06/10 08:05:32;;;;;;;10.93;4.95;;;17.70;99.90;;;;;;5047854;28;20399;-80
2022/06/10 08:07:58;;;;;;;8.27;4.95;;;17.70;99.90;;;;;;5045926;28;20068;-80
2022/06/10 08:10:29;;;;;;;7.05;4.30;;;17.80;99.90;;;;;;5049628;28;20095;-80
2022/06/10 08:12:55;;;;;;;9.48;3.53;;;17.70;99.90;;;;;;5048047;28;20039;-79
2022/06/10 08:15:22;;;;;;;8.82;3.70;;;17.80;99.90;;;;;;5049165;28;20041;-80
2022/06/10 08:17:49;;;;;;;8.65;3.67;;;18.10;99.90;;;;;;5064116;28;20526;-79
2022/06/10 08:22:32;;;;;;;6.97;3.80;;;18.30;99.90;;;;;;5047732;28;20048;-79
2022/06/10 08:23:10;;;;;;;10.90;4.05;;;18.60;99.90;;;;;;5049252;28;20116;-80
2022/06/10 08:25:36;;;;;;;6.45;3.95;;;18.60;99.90;;;;;;5048327;28;20155;-80
2022/06/10 08:28:02;;;;;;;8.40;4.00;;;18.70;99.90;;;;;;5044614;28;20040;-79
2022/06/10 08:30:28;;;;;;;7.57;3.55;;;18.70;99.90;;;;;;5047680;28;20558;-79
2022/06/10 08:32:54;;;;;;;7.07;3.78;;;18.80;99.90;;;;;;5047578;28;20091;-79
2022/06/10 08:35:19;;;;;;;8.30;3.30;;;18.90;99.90;;;;;;5049345;28;20407;-79
2022/06/10 08:37:45;;;;;;;6.88;3.22;;;18.80;99.90;;;;;;5047771;28;20396;-79
2022/06/10 08:40:37;;;;;;;11.30;4.82;;;18.80;99.90;;;;;;5048744;28;20367;-80
2022/06/10 08:43:14;;;;;;;7.57;4.47;;;18.80;99.90;;;;;;5005203;28;20044;-80
2022/06/10 08:46:00;;;;;;;9.88;4.25;;;18.80;99.90;;;;;;5068019;28;20051;-79
2022/06/10 08:49:10;;;;;;;9.60;3.83;;;18.90;99.90;;;;;;5041697;28;20041;-80
2022/06/10 08:51:49;;;;;;;9.63;3.53;;;19.10;99.90;;;;;;5045461;28;20446;-80
2022/06/10 08:54:16;;;;;;;9.30;3.85;;;19.10;99.90;;;;;;5051489;28;20087;-80
2022/06/10 08:56:49;;;;;;;13.05;4.43;;;19.20;99.90;;;;;;5052893;28;20055;-80
2022/06/10 08:59:27;;;;;;;7.93;4.10;;;19.40;99.90;;;;;;5055629;28;20040;-80
2022/06/10 09:02:03;;;;;;;11.05;5.15;;;19.60;99.90;;;;;;5054171;28;20029;-80
2022/06/10 09:04:38;;;;;;;7.45;3.65;;;19.60;99.90;;;;;;5049987;28;20045;-79
2022/06/10 09:07:11;;;;;;;10.10;4.20;;;19.40;99.90;;;;;;5044250;28;20041;-79
2022/06/10 09:09:40;;;;;;;5.47;3.15;;;19.40;99.90;;;;;;5059155;28;20050;-79
2022/06/10 09:12:28;;;;;;;10.48;4.10;;;19.40;99.90;;;;;;5060729;28;20037;-79
2022/06/10 09:15:03;;;;;;;6.90;3.85;;;19.60;99.90;;;;;;5045965;28;20047;-79
2022/06/10 09:17:43;;;;;;;16.50;5.18;;;20.10;99.90;;;;;;5045840;28;20060;-79
2022/06/10 09:20:41;;;;;;;16.23;7.80;;;20.40;99.90;;;;;;5080442;22;20157;-80
2022/06/10 09:23:54;;;;;;;104.15;73.85;;;20.60;99.90;;;;;;5048143;28;20086;-80
2022/06/10 09:29:42;;;;;;;148.73;106.38;;;20.80;99.90;;;;;;4983401;28;20058;-79
2022/06/10 09:42:48;;;;;;;9.10;2.78;;;20.30;99.90;;;;;;5007157;28;20514;-79
2022/06/10 09:45:38;;;;;;;8.20;2.67;;;20.10;99.90;;;;;;5062159;28;20045;-79
2022/06/10 09:48:26;;;;;;;8.48;2.85;;;20.00;99.90;;;;;;5062380;28;20056;-79
2022/06/10 09:51:00;;;;;;;12.38;3.53;;;20.10;99.90;;;;;;5063344;28;20052;-79
2022/06/10 09:53:37;;;;;;;300.98;209.68;;;20.10;99.90;;;;;;5065549;28;20041;-78
2022/06/10 09:56:12;;;;;;;12.80;5.00;;;20.10;99.90;;;;;;5061591;28;20048;-79
2022/06/10 09:59:02;;;;;;;52.63;34.58;;;20.00;99.90;;;;;;5063664;28;20552;-79
2022/06/10 10:01:40;;;;;;;9.82;6.18;;;19.80;99.90;;;;;;5063664;28;20044;-80
2022/06/10 10:04:39;;;;;;;9.75;4.65;;;19.50;99.90;;;;;;5060010;28;20041;-79
2022/06/10 10:07:20;;;;;;;34.95;20.88;;;19.20;99.90;;;;;;5063242;28;20040;-78
2022/06/10 10:10:04;;;;;;;11.98;7.57;;;19.10;99.90;;;;;;5064664;28;20331;-79
2022/06/10 10:12:36;;;;;;;15.55;8.57;;;19.30;99.90;;;;;;5067054;28;20410;-78
2022/06/10 10:15:13;;;;;;;7.00;2.65;;;19.50;99.90;;;;;;5063920;28;20040;-78
2022/06/10 10:17:50;;;;;;;5.15;2.25;;;19.70;99.90;;;;;;5062462;28;20127;-79
2022/06/10 10:21:17;;;;;;;;;;;;;;;;;;;;;
2022/06/10 10:24:09;;;;;;;9.52;2.58;;;20.00;99.90;;;;;;5050903;28;20106;-79
2022/06/10 10:27:26;;;;;;;5.18;1.90;;;20.40;99.90;;;;;;5049521;28;20480;-79
2022/06/10 10:30:18;;;;;;;6.72;2.58;;;20.80;99.90;;;;;;4993765;28;20045;-79
2022/06/10 10:33:00;;;;;;;6.68;2.13;;;21.20;99.90;;;;;;4996487;28;20054;-80
2022/06/10 10:35:41;;;;;;;4.25;2.00;;;21.70;99.90;;;;;;5028857;28;20034;-80
2022/06/10 10:38:11;;;;;;;4.35;2.05;;;22.30;99.90;;;;;;5023351;28;20057;-80
2022/06/10 10:40:44;;;;;;;6.93;2.63;;;22.60;99.90;;;;;;5017687;28;20073;-80
2022/06/10 10:43:16;;;;;;;4.43;2.13;;;22.50;99.90;;;;;;5036152;28;20077;-80
2022/06/10 10:45:52;;;;;;;6.85;2.47;;;22.20;99.90;;;;;;5036551;28;20065;-80
2022/06/10 10:48:24;;;;;;;5.80;2.13;;;22.10;99.90;;;;;;5036242;28;20105;-80
2022/06/10 10:51:09;;;;;;;11.60;2.58;;;22.20;99.90;;;;;;5044895;28;20049;-80
2022/06/10 10:53:48;;;;;;;6.37;2.20;;;22.10;99.90;;;;;;5041818;28;20042;-80
2022/06/10 10:56:16;;;;;;;5.90;2.15;;;22.00;99.90;;;;;;5043439;28;20276;-79
2022/06/10 10:58:51;;;;;;;6.22;1.90;;;21.80;99.90;;;;;;5044010;28;20045;-80
2022/06/10 11:01:51;;;;;;;7.95;2.53;;;21.70;99.90;;;;;;5022676;28;20041;-79
2022/06/10 11:04:36;;;;;;;4.80;1.48;;;21.60;99.90;;;;;;5022332;28;20042;-79
2022/06/10 11:07:15;;;;;;;4.32;1.60;;;21.60;99.90;;;;;;5040955;28;20045;-79
2022/06/10 11:09:44;;;;;;;8.30;2.22;;;21.80;99.90;;;;;;5037637;28;20042;-79
2022/06/10 11:12:15;;;;;;;6.20;2.60;;;22.20;99.90;;;;;;5038109;28;20135;-80
2022/06/10 11:14:41;;;;;;;4.05;2.28;;;22.70;99.90;;;;;;5040246;28;20049;-80
2022/06/10 11:17:13;;;;;;;7.03;2.00;;;22.70;99.90;;;;;;5042547;28;20102;-81
2022/06/10 11:20:01;;;;;;;6.28;1.90;;;22.70;99.90;;;;;;5022219;28;20046;-79
2022/06/10 11:22:28;;;;;;;21.10;12.75;;;22.70;99.90;;;;;;5050979;28;20283;-79
2022/06/10 11:25:02;;;;;;;85.13;67.68;;;22.50;99.90;;;;;;5034704;28;20033;-79
2022/06/10 11:27:35;;;;;;;24.33;17.38;;;22.10;99.90;;;;;;5034524;28;20049;-79
2022/06/10 11:30:03;;;;;;;275.60;227.13;;;22.00;99.90;;;;;;5031834;28;20049;-79
2022/06/10 11:32:47;;;;;;;6.93;2.42;;;22.20;99.90;;;;;;5037190;28;20056;-80
2022/06/10 11:35:59;;;;;;;11.60;9.15;;;22.30;99.90;;;;;;5035132;28;20052;-80
2022/06/10 11:38:28;;;;;;;7.18;1.88;;;22.50;99.90;;;;;;4954796;28;20062;-80
2022/06/10 11:40:57;;;;;;;5.40;1.50;;;22.50;99.90;;;;;;5033236;28;20085;-80
2022/06/10 11:43:34;;;;;;;5.40;1.40;;;22.50;99.90;;;;;;5042081;28;20037;-80
2022/06/10 11:46:21;;;;;;;7.40;2.60;;;22.60;99.90;;;;;;5037673;28;20037;-80
2022/06/10 11:49:12;;;;;;;4.65;1.80;;;22.60;99.90;;;;;;5038360;28;20069;-79
2022/06/10 11:52:14;;;;;;;5.20;1.65;;;23.00;99.90;;;;;;5038673;28;20091;-78
2022/06/10 11:54:56;;;;;;;3.97;1.60;;;23.50;99.90;;;;;;5034697;28;20068;-78
2022/06/10 12:00:17;;;;;;;5.90;1.87;;;24.10;99.90;;;;;;5050350;28;20099;-78
2022/06/10 12:02:52;;;;;;;5.85;1.83;;;24.90;99.90;;;;;;5032386;28;20081;-78
2022/06/10 12:05:39;;;;;;;5.63;1.70;;;25.20;99.90;;;;;;5036835;28;20037;-78
2022/06/10 12:08:26;;;;;;;4.47;1.80;;;25.40;99.90;;;;;;5034091;28;20053;-78
2022/06/10 12:11:03;;;;;;;3.63;1.48;;;25.60;98.30;;;;;;5035872;28;20048;-77
2022/06/10 12:13:34;;;;;;;8.68;1.85;;;25.40;98.90;;;;;;5035559;28;20078;-78
2022/06/10 12:16:02;;;;;;;6.47;1.75;;;24.80;95.90;;;;;;5031336;28;20042;-77
2022/06/10 12:18:32;;;;;;;6.75;1.95;;;24.10;96.40;;;;;;5029458;28;20041;-77
2022/06/10 12:21:02;;;;;;;11.40;3.05;;;23.60;97.10;;;;;;5033956;28;20192;-77
2022/06/10 12:23:29;;;;;;;6.70;1.85;;;23.30;97.90;;;;;;5033099;28;20037;-77
2022/06/10 12:26:02;;;;;;;5.80;2.00;;;23.00;99.20;;;;;;5037896;28;20156;-77
2022/06/10 12:28:40;;;;;;;7.97;1.73;;;22.90;99.90;;;;;;5030424;28;20053;-78
2022/06/10 12:31:35;;;;;;;6.65;1.85;;;22.70;99.70;;;;;;5034830;28;20083;-80
2022/06/10 12:34:22;;;;;;;8.85;1.63;;;22.50;99.90;;;;;;5031522;28;20041;-80
2022/06/10 12:37:00;;;;;;;4.38;1.50;;;22.50;99.90;;;;;;5039272;28;20049;-80
2022/06/10 12:39:37;;;;;;;6.30;2.00;;;22.90;99.90;;;;;;5054854;28;20132;-78
2022/06/10 12:42:24;;;;;;;5.47;1.70;;;23.20;99.90;;;;;;5035099;28;20037;-78
2022/06/10 12:44:55;;;;;;;6.85;1.70;;;23.30;99.90;;;;;;5033988;28;20077;-78
2022/06/10 12:47:41;;;;;;;5.22;1.60;;;23.10;99.90;;;;;;5037170;28;20080;-78
2022/06/10 12:50:23;;;;;;;7.47;1.40;;;22.80;99.90;;;;;;5029966;28;20069;-78
2022/06/10 12:53:24;;;;;;;5.22;2.17;;;22.50;99.90;;;;;;5031618;28;20412;-77
2022/06/10 12:55:52;;;;;;;5.63;1.42;;;22.30;99.90;;;;;;5018938;28;20041;-78
2022/06/10 12:58:53;;;;;;;7.20;2.47;;;22.40;99.90;;;;;;5031800;28;20037;-78
2022/06/10 13:01:27;;;;;;;6.68;2.00;;;22.80;99.90;;;;;;4990974;28;20519;-78
2022/06/10 13:03:56;;;;;;;8.85;1.85;;;23.10;99.90;;;;;;5027555;28;20037;-78
2022/06/10 13:06:29;;;;;;;4.82;1.95;;;23.30;99.90;;;;;;5034848;28;20810;-78
2022/06/10 13:09:23;;;;;;;4.68;1.77;;;23.50;99.90;;;;;;5033979;28;20037;-78
2022/06/10 13:11:54;;;;;;;4.88;1.40;;;23.90;99.90;;;;;;5022107;28;20046;-78
2022/06/10 13:14:33;;;;;;;6.07;1.33;;;24.30;99.90;;;;;;5029796;28;20048;-78
2022/06/10 13:16:58;;;;;;;3.95;1.00;;;24.40;99.20;;;;;;5043399;28;20053;-78
2022/06/10 13:19:42;;;;;;;20.42;15.55;;;24.50;99.10;;;;;;5029043;28;20045;-78
2022/06/10 13:22:17;;;;;;;5.15;3.30;;;24.50;98.20;;;;;;5016270;28;20067;-78
2022/06/10 13:24:44;;;;;;;63.00;54.03;;;24.60;97.00;;;;;;5008187;28;20121;-78
2022/06/10 13:27:20;;;;;;;4.57;1.50;;;24.50;97.90;;;;;;5012807;28;20046;-78
2022/06/10 13:29:54;;;;;;;31.55;21.15;;;24.50;94.80;;;;;;5012314;28;20053;-78
2022/06/10 13:32:20;;;;;;;48.63;33.92;;;24.60;95.50;;;;;;5025879;28;20515;-77
2022/06/10 13:34:57;;;;;;;26.73;17.00;;;24.60;95.60;;;;;;5011420;28;20037;-78
2022/06/10 13:37:24;;;;;;;12.05;5.53;;;24.40;94.30;;;;;;5027543;28;20431;-77
2022/06/10 13:39:53;;;;;;;8.25;3.53;;;24.20;95.10;;;;;;5032132;28;20053;-78
2022/06/10 13:42:30;;;;;;;30.58;26.90;;;23.70;93.80;;;;;;5022817;28;20042;-77
2022/06/10 13:45:03;;;;;;;4.22;1.40;;;23.30;94.50;;;;;;5015340;28;20045;-78